sensor_id;sensor_type;location;lat;lon;timestamp;P1;durP1;ratioP1;P2;durP2;ratioP2
2480;SDS011;57396;48.742;9.128;2023-10-13T00:01:19;9.13;;;4.10;;
2480;SDS011;57396;48.742;9.128;2023-10-13T00:03:45;4.93;;;3.83;;
2480;SDS011;57396;48.742;9.128;2023-10-13T00:06:10;9.87;;;4.30;;
2480;SDS011;57396;48.742;9.128;2023-10-13T00:08:36;7.60;;;3.97;;
2480;SDS011;57396;48.742;9.128;2023-10-13T00:11:02;9.23;;;4.47;;
2480;SDS011;57396;48.742;9.128;2023-10-13T00:13:28;6.23;;;4.07;;
2480;SDS011;57396;48.742;9.128;2023-10-13T00:15:56;12.73;;;4.47;;
2480;SDS011;57396;48.742;9.128;2023-10-13T00:21:07;9.23;;;4.33;;
2480;SDS011;57396;48.742;9.128;2023-10-13T00:23:56;7.10;;;4.50;;
2480;SDS011;57396;48.742;9.128;2023-10-13T00:26:23;10.00;;;4.63;;
2480;SDS011;57396;48.742;9.128;2023-10-13T00:28:52;9.27;;;4.20;;
2480;SDS011;57396;48.742;9.128;2023-10-13T00:31:37;12.70;;;4.90;;
2480;SDS011;57396;48.742;9.128;2023-10-13T00:34:08;9.37;;;4.13;;
2480;SDS011;57396;48.742;9.128;2023-10-13T00:36:37;7.23;;;4.50;;
2480;SDS011;57396;48.742;9.128;2023-10-13T00:39:13;16.50;;;5.03;;
2480;SDS011;57396;48.742;9.128;2023-10-13T00:41:41;8.80;;;4.70;;
2480;SDS011;57396;48.742;9.128;2023-10-13T00:44:17;11.97;;;5.17;;
2480;SDS011;57396;48.742;9.128;2023-10-13T00:46:50;15.33;;;5.97;;
2480;SDS011;57396;48.742;9.128;2023-10-13T00:49:20;8.73;;;4.50;;
2480;SDS011;57396;48.742;9.128;2023-10-13T00:51:47;9.47;;;4.67;;
2480;SDS011;57396;48.742;9.128;2023-10-13T00:54:12;6.67;;;4.80;;
2480;SDS011;57396;48.742;9.128;2023-10-13T00:56:39;11.77;;;4.87;;
2480;SDS011;57396;48.742;9.128;2023-10-13T00:59:18;8.70;;;4.90;;
2480;SDS011;57396;48.742;9.128;2023-10-13T01:01:48;10.27;;;5.33;;
2480;SDS011;57396;48.742;9.128;2023-10-13T01:04:19;8.10;;;5.03;;
2480;SDS011;57396;48.742;9.128;2023-10-13T01:06:44;9.83;;;5.27;;
2480;SDS011;57396;48.742;9.128;2023-10-13T01:09:11;15.33;;;5.17;;
2480;SDS011;57396;48.742;9.128;2023-10-13T01:11:48;12.30;;;5.13;;
2480;SDS011;57396;48.742;9.128;2023-10-13T01:14:17;8.40;;;4.67;;
2480;SDS011;57396;48.742;9.128;2023-10-13T01:16:47;11.80;;;4.60;;
2480;SDS011;57396;48.742;9.128;2023-10-13T01:19:15;10.67;;;4.67;;
2480;SDS011;57396;48.742;9.128;2023-10-13T01:21:49;7.50;;;3.73;;
2480;SDS011;57396;48.742;9.128;2023-10-13T01:24:15;8.17;;;4.67;;
2480;SDS011;57396;48.742;9.128;2023-10-13T01:26:44;6.30;;;4.03;;
2480;SDS011;57396;48.742;9.128;2023-10-13T01:29:10;8.80;;;3.80;;
2480;SDS011;57396;48.742;9.128;2023-10-13T01:31:41;7.23;;;4.30;;
2480;SDS011;57396;48.742;9.128;2023-10-13T01:34:19;6.13;;;4.00;;
2480;SDS011;57396;48.742;9.128;2023-10-13T01:36:55;8.57;;;4.10;;
2480;SDS011;57396;48.742;9.128;2023-10-13T01:39:22;9.60;;;3.70;;
2480;SDS011;57396;48.742;9.128;2023-10-13T01:41:54;12.20;;;4.03;;
2480;SDS011;57396;48.742;9.128;2023-10-13T01:44:23;6.93;;;4.17;;
2480;SDS011;57396;48.742;9.128;2023-10-13T01:46:53;6.83;;;4.00;;
2480;SDS011;57396;48.742;9.128;2023-10-13T01:49:18;8.67;;;4.50;;
2480;SDS011;57396;48.742;9.128;2023-10-13T01:51:44;9.30;;;4.10;;
2480;SDS011;57396;48.742;9.128;2023-10-13T01:54:12;6.10;;;4.10;;
2480;SDS011;57396;48.742;9.128;2023-10-13T01:56:38;7.83;;;4.20;;
2480;SDS011;57396;48.742;9.128;2023-10-13T01:59:10;5.63;;;3.80;;
2480;SDS011;57396;48.742;9.128;2023-10-13T02:01:36;7.20;;;4.10;;
2480;SDS011;57396;48.742;9.128;2023-10-13T02:04:02;7.73;;;3.50;;
2480;SDS011;57396;48.742;9.128;2023-10-13T02:06:29;15.53;;;4.53;;
2480;SDS011;57396;48.742;9.128;2023-10-13T02:09:02;8.77;;;4.37;;
2480;SDS011;57396;48.742;9.128;2023-10-13T02:11:41;6.13;;;3.70;;
2480;SDS011;57396;48.742;9.128;2023-10-13T02:14:08;4.47;;;3.73;;
2480;SDS011;57396;48.742;9.128;2023-10-13T02:16:36;7.60;;;3.90;;
2480;SDS011;57396;48.742;9.128;2023-10-13T02:19:02;7.00;;;3.83;;
2480;SDS011;57396;48.742;9.128;2023-10-13T02:21:33;15.83;;;4.53;;
2480;SDS011;57396;48.742;9.128;2023-10-13T02:24:07;7.70;;;4.60;;
2480;SDS011;57396;48.742;9.128;2023-10-13T02:26:38;9.43;;;4.50;;
2480;SDS011;57396;48.742;9.128;2023-10-13T02:29:05;9.73;;;4.33;;
2480;SDS011;57396;48.742;9.128;2023-10-13T02:31:36;5.50;;;4.10;;
2480;SDS011;57396;48.742;9.128;2023-10-13T02:34:04;7.67;;;4.20;;
2480;SDS011;57396;48.742;9.128;2023-10-13T02:36:34;7.67;;;4.23;;
2480;SDS011;57396;48.742;9.128;2023-10-13T02:39:03;7.50;;;3.80;;
2480;SDS011;57396;48.742;9.128;2023-10-13T02:41:32;8.53;;;4.13;;
2480;SDS011;57396;48.742;9.128;2023-10-13T02:44:00;6.10;;;4.07;;
2480;SDS011;57396;48.742;9.128;2023-10-13T02:46:26;6.13;;;4.23;;
2480;SDS011;57396;48.742;9.128;2023-10-13T02:48:54;14.90;;;4.03;;
2480;SDS011;57396;48.742;9.128;2023-10-13T02:51:22;5.13;;;4.50;;
2480;SDS011;57396;48.742;9.128;2023-10-13T02:53:56;9.50;;;4.10;;
2480;SDS011;57396;48.742;9.128;2023-10-13T02:56:27;11.40;;;4.67;;
2480;SDS011;57396;48.742;9.128;2023-10-13T02:58:54;12.10;;;4.53;;
2480;SDS011;57396;48.742;9.128;2023-10-13T03:01:21;8.67;;;4.10;;
2480;SDS011;57396;48.742;9.128;2023-10-13T03:03:52;9.10;;;4.60;;
2480;SDS011;57396;48.742;9.128;2023-10-13T03:06:23;10.70;;;4.67;;
2480;SDS011;57396;48.742;9.128;2023-10-13T03:08:57;10.70;;;4.53;;
2480;SDS011;57396;48.742;9.128;2023-10-13T03:11:25;8.37;;;4.57;;
2480;SDS011;57396;48.742;9.128;2023-10-13T03:13:51;6.53;;;4.47;;
2480;SDS011;57396;48.742;9.128;2023-10-13T03:16:18;9.50;;;4.20;;
2480;SDS011;57396;48.742;9.128;2023-10-13T03:18:45;9.13;;;3.97;;
2480;SDS011;57396;48.742;9.128;2023-10-13T03:21:21;5.80;;;4.00;;
2480;SDS011;57396;48.742;9.128;2023-10-13T03:23:58;10.90;;;4.50;;
2480;SDS011;57396;48.742;9.128;2023-10-13T03:26:30;6.17;;;4.20;;
2480;SDS011;57396;48.742;9.128;2023-10-13T03:29:09;7.37;;;4.47;;
2480;SDS011;57396;48.742;9.128;2023-10-13T03:31:38;15.43;;;4.53;;
2480;SDS011;57396;48.742;9.128;2023-10-13T03:34:05;8.83;;;4.20;;
2480;SDS011;57396;48.742;9.128;2023-10-13T03:36:35;10.63;;;4.30;;
2480;SDS011;57396;48.742;9.128;2023-10-13T03:39:21;5.97;;;4.07;;
2480;SDS011;57396;48.742;9.128;2023-10-13T03:41:52;4.70;;;4.20;;
2480;SDS011;57396;48.742;9.128;2023-10-13T03:44:19;12.83;;;4.63;;
2480;SDS011;57396;48.742;9.128;2023-10-13T03:46:44;11.60;;;4.67;;
2480;SDS011;57396;48.742;9.128;2023-10-13T03:49:13;7.17;;;4.83;;
2480;SDS011;57396;48.742;9.128;2023-10-13T03:51:41;8.73;;;4.43;;
2480;SDS011;57396;48.742;9.128;2023-10-13T03:54:06;7.80;;;4.40;;
2480;SDS011;57396;48.742;9.128;2023-10-13T03:56:35;11.60;;;5.10;;
2480;SDS011;57396;48.742;9.128;2023-10-13T03:59:03;8.20;;;4.20;;
2480;SDS011;57396;48.742;9.128;2023-10-13T04:01:34;16.03;;;4.63;;
2480;SDS011;57396;48.742;9.128;2023-10-13T04:04:09;8.30;;;4.67;;
2480;SDS011;57396;48.742;9.128;2023-10-13T04:06:37;8.73;;;4.90;;
2480;SDS011;57396;48.742;9.128;2023-10-13T04:09:14;5.37;;;4.40;;
2480;SDS011;57396;48.742;9.128;2023-10-13T04:11:55;11.57;;;4.77;;
2480;SDS011;57396;48.742;9.128;2023-10-13T04:14:33;12.87;;;6.07;;
2480;SDS011;57396;48.742;9.128;2023-10-13T04:17:19;9.00;;;5.40;;
2480;SDS011;57396;48.742;9.128;2023-10-13T04:19:47;12.13;;;5.77;;
2480;SDS011;57396;48.742;9.128;2023-10-13T04:22:32;10.00;;;5.27;;
2480;SDS011;57396;48.742;9.128;2023-10-13T04:25:13;10.23;;;5.37;;
2480;SDS011;57396;48.742;9.128;2023-10-13T04:28:00;9.60;;;5.70;;
2480;SDS011;57396;48.742;9.128;2023-10-13T04:30:39;7.63;;;5.07;;
2480;SDS011;57396;48.742;9.128;2023-10-13T04:33:26;14.33;;;5.50;;
2480;SDS011;57396;48.742;9.128;2023-10-13T04:36:11;9.73;;;5.93;;
2480;SDS011;57396;48.742;9.128;2023-10-13T04:38:43;9.60;;;5.37;;
2480;SDS011;57396;48.742;9.128;2023-10-13T04:41:17;8.33;;;5.43;;
2480;SDS011;57396;48.742;9.128;2023-10-13T04:43:47;9.23;;;5.63;;
2480;SDS011;57396;48.742;9.128;2023-10-13T04:46:21;9.70;;;5.40;;
2480;SDS011;57396;48.742;9.128;2023-10-13T04:49:09;10.90;;;5.47;;
2480;SDS011;57396;48.742;9.128;2023-10-13T04:51:38;9.30;;;5.60;;
2480;SDS011;57396;48.742;9.128;2023-10-13T04:54:24;14.10;;;6.33;;
2480;SDS011;57396;48.742;9.128;2023-10-13T04:56:51;15.33;;;5.80;;
2480;SDS011;57396;48.742;9.128;2023-10-13T04:59:35;10.63;;;5.20;;
2480;SDS011;57396;48.742;9.128;2023-10-13T05:02:02;15.63;;;5.40;;
2480;SDS011;57396;48.742;9.128;2023-10-13T05:04:46;8.37;;;5.53;;
2480;SDS011;57396;48.742;9.128;2023-10-13T05:07:31;16.53;;;6.50;;
2480;SDS011;57396;48.742;9.128;2023-10-13T05:10:15;13.23;;;5.50;;
2480;SDS011;57396;48.742;9.128;2023-10-13T05:13:00;11.20;;;5.40;;
2480;SDS011;57396;48.742;9.128;2023-10-13T05:15:46;13.40;;;5.50;;
2480;SDS011;57396;48.742;9.128;2023-10-13T05:18:31;7.03;;;5.33;;
2480;SDS011;57396;48.742;9.128;2023-10-13T05:21:15;8.23;;;4.70;;
2480;SDS011;57396;48.742;9.128;2023-10-13T05:23:58;7.90;;;4.87;;
2480;SDS011;57396;48.742;9.128;2023-10-13T05:26:42;12.63;;;5.87;;
2480;SDS011;57396;48.742;9.128;2023-10-13T05:29:26;12.10;;;6.07;;
2480;SDS011;57396;48.742;9.128;2023-10-13T05:32:10;12.20;;;5.43;;
2480;SDS011;57396;48.742;9.128;2023-10-13T05:34:53;16.73;;;5.97;;
2480;SDS011;57396;48.742;9.128;2023-10-13T05:37:37;10.13;;;5.73;;
2480;SDS011;57396;48.742;9.128;2023-10-13T05:40:21;12.60;;;5.77;;
2480;SDS011;57396;48.742;9.128;2023-10-13T05:43:05;10.20;;;5.20;;
2480;SDS011;57396;48.742;9.128;2023-10-13T05:45:49;13.33;;;4.40;;
2480;SDS011;57396;48.742;9.128;2023-10-13T05:48:33;16.63;;;5.23;;
2480;SDS011;57396;48.742;9.128;2023-10-13T05:51:27;16.40;;;4.93;;
2480;SDS011;57396;48.742;9.128;2023-10-13T05:54:00;9.73;;;4.17;;
2480;SDS011;57396;48.742;9.128;2023-10-13T05:56:41;9.93;;;4.57;;
2480;SDS011;57396;48.742;9.128;2023-10-13T05:59:32;7.70;;;4.70;;
2480;SDS011;57396;48.742;9.128;2023-10-13T06:02:18;11.33;;;4.57;;
2480;SDS011;57396;48.742;9.128;2023-10-13T06:05:03;16.10;;;5.30;;
2480;SDS011;57396;48.742;9.128;2023-10-13T06:07:48;11.93;;;5.40;;
2480;SDS011;57396;48.742;9.128;2023-10-13T06:10:31;13.63;;;4.67;;
2480;SDS011;57396;48.742;9.128;2023-10-13T06:13:15;20.40;;;5.77;;
2480;SDS011;57396;48.742;9.128;2023-10-13T06:15:59;19.07;;;5.63;;
2480;SDS011;57396;48.742;9.128;2023-10-13T06:18:43;28.20;;;6.20;;
2480;SDS011;57396;48.742;9.128;2023-10-13T06:21:27;14.50;;;5.57;;
2480;SDS011;57396;48.742;9.128;2023-10-13T06:24:10;12.90;;;5.23;;
2480;SDS011;57396;48.742;9.128;2023-10-13T06:26:54;12.23;;;5.57;;
2480;SDS011;57396;48.742;9.128;2023-10-13T06:29:38;10.17;;;5.93;;
2480;SDS011;57396;48.742;9.128;2023-10-13T06:32:03;11.93;;;5.83;;
2480;SDS011;57396;48.742;9.128;2023-10-13T06:34:36;12.30;;;5.50;;
2480;SDS011;57396;48.742;9.128;2023-10-13T06:37:13;17.27;;;6.23;;
2480;SDS011;57396;48.742;9.128;2023-10-13T06:39:52;13.30;;;5.53;;
2480;SDS011;57396;48.742;9.128;2023-10-13T06:42:21;18.57;;;5.63;;
2480;SDS011;57396;48.742;9.128;2023-10-13T06:44:53;8.43;;;4.60;;
2480;SDS011;57396;48.742;9.128;2023-10-13T06:47:19;7.30;;;4.40;;
2480;SDS011;57396;48.742;9.128;2023-10-13T06:49:45;6.13;;;4.10;;
2480;SDS011;57396;48.742;9.128;2023-10-13T06:52:13;7.10;;;4.40;;
2480;SDS011;57396;48.742;9.128;2023-10-13T06:54:41;10.70;;;4.23;;
2480;SDS011;57396;48.742;9.128;2023-10-13T06:57:08;9.20;;;4.10;;
2480;SDS011;57396;48.742;9.128;2023-10-13T06:59:39;9.53;;;3.87;;
2480;SDS011;57396;48.742;9.128;2023-10-13T07:02:05;9.30;;;4.50;;
2480;SDS011;57396;48.742;9.128;2023-10-13T07:04:33;8.37;;;4.77;;
2480;SDS011;57396;48.742;9.128;2023-10-13T07:06:59;6.00;;;3.90;;
2480;SDS011;57396;48.742;9.128;2023-10-13T07:09:26;17.10;;;5.40;;
2480;SDS011;57396;48.742;9.128;2023-10-13T07:12:04;20.80;;;4.33;;
2480;SDS011;57396;48.742;9.128;2023-10-13T07:14:45;12.43;;;4.90;;
2480;SDS011;57396;48.742;9.128;2023-10-13T07:17:16;9.37;;;4.23;;
2480;SDS011;57396;48.742;9.128;2023-10-13T07:19:49;14.97;;;4.03;;
2480;SDS011;57396;48.742;9.128;2023-10-13T07:22:31;6.80;;;3.70;;
2480;SDS011;57396;48.742;9.128;2023-10-13T07:25:04;8.10;;;4.70;;
2480;SDS011;57396;48.742;9.128;2023-10-13T07:27:31;8.10;;;4.07;;
2480;SDS011;57396;48.742;9.128;2023-10-13T07:30:00;11.67;;;4.20;;
2480;SDS011;57396;48.742;9.128;2023-10-13T07:32:38;13.07;;;4.40;;
2480;SDS011;57396;48.742;9.128;2023-10-13T07:35:10;9.43;;;4.53;;
2480;SDS011;57396;48.742;9.128;2023-10-13T07:37:45;11.33;;;4.73;;
2480;SDS011;57396;48.742;9.128;2023-10-13T07:40:17;8.53;;;4.20;;
2480;SDS011;57396;48.742;9.128;2023-10-13T07:42:54;20.33;;;4.70;;
2480;SDS011;57396;48.742;9.128;2023-10-13T07:45:29;14.60;;;4.33;;
2480;SDS011;57396;48.742;9.128;2023-10-13T07:48:07;9.80;;;4.37;;
2480;SDS011;57396;48.742;9.128;2023-10-13T07:51:01;15.13;;;4.47;;
2480;SDS011;57396;48.742;9.128;2023-10-13T07:53:28;7.23;;;3.60;;
2480;SDS011;57396;48.742;9.128;2023-10-13T07:56:00;10.40;;;3.97;;
2480;SDS011;57396;48.742;9.128;2023-10-13T07:58:30;17.43;;;4.00;;
2480;SDS011;57396;48.742;9.128;2023-10-13T08:00:58;14.77;;;4.57;;
2480;SDS011;57396;48.742;9.128;2023-10-13T08:03:23;12.23;;;4.30;;
2480;SDS011;57396;48.742;9.128;2023-10-13T08:06:00;9.70;;;4.37;;
2480;SDS011;57396;48.742;9.128;2023-10-13T08:08:43;11.20;;;3.60;;
2480;SDS011;57396;48.742;9.128;2023-10-13T08:11:13;19.70;;;4.20;;
2480;SDS011;57396;48.742;9.128;2023-10-13T08:13:51;12.63;;;3.43;;
2480;SDS011;57396;48.742;9.128;2023-10-13T08:16:24;6.80;;;3.37;;
2480;SDS011;57396;48.742;9.128;2023-10-13T08:19:14;6.80;;;3.63;;
2480;SDS011;57396;48.742;9.128;2023-10-13T08:21:43;7.70;;;3.50;;
2480;SDS011;57396;48.742;9.128;2023-10-13T08:24:24;10.63;;;3.60;;
2480;SDS011;57396;48.742;9.128;2023-10-13T08:26:54;12.23;;;3.60;;
2480;SDS011;57396;48.742;9.128;2023-10-13T08:29:43;10.57;;;3.63;;
2480;SDS011;57396;48.742;9.128;2023-10-13T08:32:22;12.63;;;3.83;;
2480;SDS011;57396;48.742;9.128;2023-10-13T08:34:58;24.20;;;4.00;;
2480;SDS011;57396;48.742;9.128;2023-10-13T08:37:24;29.73;;;4.60;;
2480;SDS011;57396;48.742;9.128;2023-10-13T08:39:51;19.23;;;4.07;;
2480;SDS011;57396;48.742;9.128;2023-10-13T08:42:43;17.70;;;4.23;;
2480;SDS011;57396;48.742;9.128;2023-10-13T08:45:10;12.00;;;3.80;;
2480;SDS011;57396;48.742;9.128;2023-10-13T08:47:51;14.00;;;3.80;;
2480;SDS011;57396;48.742;9.128;2023-10-13T08:50:36;13.33;;;3.47;;
2480;SDS011;57396;48.742;9.128;2023-10-13T08:53:20;12.83;;;3.80;;
2480;SDS011;57396;48.742;9.128;2023-10-13T08:56:11;12.43;;;3.60;;
2480;SDS011;57396;48.742;9.128;2023-10-13T08:58:46;5.67;;;2.57;;
2480;SDS011;57396;48.742;9.128;2023-10-13T09:01:33;7.13;;;3.50;;
2480;SDS011;57396;48.742;9.128;2023-10-13T09:04:25;15.40;;;3.80;;
2480;SDS011;57396;48.742;9.128;2023-10-13T09:07:02;9.57;;;3.13;;
2480;SDS011;57396;48.742;9.128;2023-10-13T09:12:15;7.77;;;3.30;;
2480;SDS011;57396;48.742;9.128;2023-10-13T09:15:14;7.80;;;3.40;;
2480;SDS011;57396;48.742;9.128;2023-10-13T09:17:43;6.70;;;3.50;;
2480;SDS011;57396;48.742;9.128;2023-10-13T09:20:16;8.50;;;3.00;;
2480;SDS011;57396;48.742;9.128;2023-10-13T09:22:57;15.37;;;3.07;;
2480;SDS011;57396;48.742;9.128;2023-10-13T09:25:29;8.87;;;3.10;;
2480;SDS011;57396;48.742;9.128;2023-10-13T09:28:10;10.83;;;3.37;;
2480;SDS011;57396;48.742;9.128;2023-10-13T09:30:46;8.27;;;3.67;;
2480;SDS011;57396;48.742;9.128;2023-10-13T09:33:24;6.50;;;2.93;;
2480;SDS011;57396;48.742;9.128;2023-10-13T09:36:10;11.30;;;3.00;;
2480;SDS011;57396;48.742;9.128;2023-10-13T09:38:39;17.37;;;3.33;;
2480;SDS011;57396;48.742;9.128;2023-10-13T09:41:27;14.63;;;3.53;;
2480;SDS011;57396;48.742;9.128;2023-10-13T09:43:52;9.30;;;2.87;;
2480;SDS011;57396;48.742;9.128;2023-10-13T09:46:22;7.67;;;3.17;;
2480;SDS011;57396;48.742;9.128;2023-10-13T09:48:54;11.27;;;3.40;;
2480;SDS011;57396;48.742;9.128;2023-10-13T09:51:39;15.10;;;3.27;;
2480;SDS011;57396;48.742;9.128;2023-10-13T09:54:26;11.20;;;3.00;;
2480;SDS011;57396;48.742;9.128;2023-10-13T09:56:58;9.07;;;2.90;;
2480;SDS011;57396;48.742;9.128;2023-10-13T09:59:35;11.27;;;2.90;;
2480;SDS011;57396;48.742;9.128;2023-10-13T10:02:06;27.03;;;3.60;;
2480;SDS011;57396;48.742;9.128;2023-10-13T10:04:50;10.63;;;3.00;;
2480;SDS011;57396;48.742;9.128;2023-10-13T10:07:27;6.30;;;2.87;;
2480;SDS011;57396;48.742;9.128;2023-10-13T10:09:56;8.10;;;3.27;;
2480;SDS011;57396;48.742;9.128;2023-10-13T10:18:03;14.33;;;3.20;;
2480;SDS011;57396;48.742;9.128;2023-10-13T10:20:30;9.03;;;3.00;;
2480;SDS011;57396;48.742;9.128;2023-10-13T10:23:07;9.27;;;3.50;;
2480;SDS011;57396;48.742;9.128;2023-10-13T10:25:38;9.07;;;3.17;;
2480;SDS011;57396;48.742;9.128;2023-10-13T10:30:33;12.23;;;3.10;;
2480;SDS011;57396;48.742;9.128;2023-10-13T10:33:00;9.20;;;2.97;;
2480;SDS011;57396;48.742;9.128;2023-10-13T10:35:31;8.23;;;3.13;;
2480;SDS011;57396;48.742;9.128;2023-10-13T10:38:09;13.30;;;3.00;;
2480;SDS011;57396;48.742;9.128;2023-10-13T10:40:48;9.93;;;3.00;;
2480;SDS011;57396;48.742;9.128;2023-10-13T10:43:43;14.33;;;3.27;;
2480;SDS011;57396;48.742;9.128;2023-10-13T10:46:16;8.17;;;2.83;;
2480;SDS011;57396;48.742;9.128;2023-10-13T10:48:52;7.53;;;2.93;;
2480;SDS011;57396;48.742;9.128;2023-10-13T10:51:27;11.47;;;3.17;;
2480;SDS011;57396;48.742;9.128;2023-10-13T10:53:56;8.03;;;3.20;;
2480;SDS011;57396;48.742;9.128;2023-10-13T10:56:23;10.17;;;2.77;;
2480;SDS011;57396;48.742;9.128;2023-10-13T10:58:58;14.10;;;3.30;;
2480;SDS011;57396;48.742;9.128;2023-10-13T11:01:27;9.90;;;3.20;;
2480;SDS011;57396;48.742;9.128;2023-10-13T11:03:59;6.90;;;3.10;;
2480;SDS011;57396;48.742;9.128;2023-10-13T11:06:53;8.10;;;2.80;;
2480;SDS011;57396;48.742;9.128;2023-10-13T11:11:51;8.80;;;2.93;;
2480;SDS011;57396;48.742;9.128;2023-10-13T11:14:25;12.60;;;2.97;;
2480;SDS011;57396;48.742;9.128;2023-10-13T11:16:55;9.13;;;2.60;;
2480;SDS011;57396;48.742;9.128;2023-10-13T11:19:42;11.23;;;2.97;;
2480;SDS011;57396;48.742;9.128;2023-10-13T11:25:03;9.70;;;2.70;;
2480;SDS011;57396;48.742;9.128;2023-10-13T11:27:38;8.80;;;2.90;;
2480;SDS011;57396;48.742;9.128;2023-10-13T11:30:21;12.70;;;3.67;;
2480;SDS011;57396;48.742;9.128;2023-10-13T11:35:25;13.00;;;3.23;;
2480;SDS011;57396;48.742;9.128;2023-10-13T11:37:54;11.23;;;3.30;;
2480;SDS011;57396;48.742;9.128;2023-10-13T11:40:29;9.53;;;3.10;;
2480;SDS011;57396;48.742;9.128;2023-10-13T11:43:13;5.50;;;3.10;;
2480;SDS011;57396;48.742;9.128;2023-10-13T11:45:40;11.80;;;3.03;;
2480;SDS011;57396;48.742;9.128;2023-10-13T11:48:38;17.10;;;3.10;;
2480;SDS011;57396;48.742;9.128;2023-10-13T11:51:05;11.70;;;2.63;;
2480;SDS011;57396;48.742;9.128;2023-10-13T11:56:00;9.10;;;2.70;;
2480;SDS011;57396;48.742;9.128;2023-10-13T11:58:26;9.40;;;3.70;;
2480;SDS011;57396;48.742;9.128;2023-10-13T12:00:54;13.63;;;3.40;;
2480;SDS011;57396;48.742;9.128;2023-10-13T12:03:33;9.90;;;2.90;;
2480;SDS011;57396;48.742;9.128;2023-10-13T12:06:17;6.43;;;3.00;;
2480;SDS011;57396;48.742;9.128;2023-10-13T12:08:58;7.23;;;3.10;;
2480;SDS011;57396;48.742;9.128;2023-10-13T12:11:54;5.50;;;2.40;;
2480;SDS011;57396;48.742;9.128;2023-10-13T12:14:20;7.27;;;3.23;;
2480;SDS011;57396;48.742;9.128;2023-10-13T12:17:17;7.40;;;3.00;;
2480;SDS011;57396;48.742;9.128;2023-10-13T12:20:12;9.03;;;3.20;;
2480;SDS011;57396;48.742;9.128;2023-10-13T12:22:43;7.87;;;3.00;;
2480;SDS011;57396;48.742;9.128;2023-10-13T12:25:20;5.57;;;2.63;;
2480;SDS011;57396;48.742;9.128;2023-10-13T12:27:57;9.50;;;2.73;;
2480;SDS011;57396;48.742;9.128;2023-10-13T12:30:24;10.50;;;3.30;;
2480;SDS011;57396;48.742;9.128;2023-10-13T12:33:09;14.80;;;3.17;;
2480;SDS011;57396;48.742;9.128;2023-10-13T12:35:40;6.53;;;2.70;;
2480;SDS011;57396;48.742;9.128;2023-10-13T12:38:29;9.83;;;3.20;;
2480;SDS011;57396;48.742;9.128;2023-10-13T12:41:16;6.67;;;3.27;;
2480;SDS011;57396;48.742;9.128;2023-10-13T12:44:02;11.10;;;2.90;;
2480;SDS011;57396;48.742;9.128;2023-10-13T12:46:46;9.27;;;3.23;;
2480;SDS011;57396;48.742;9.128;2023-10-13T12:49:34;8.63;;;2.90;;
2480;SDS011;57396;48.742;9.128;2023-10-13T12:52:11;12.17;;;2.60;;
2480;SDS011;57396;48.742;9.128;2023-10-13T12:55:01;8.80;;;3.00;;
2480;SDS011;57396;48.742;9.128;2023-10-13T12:57:31;6.80;;;2.93;;
2480;SDS011;57396;48.742;9.128;2023-10-13T12:59:57;9.50;;;2.50;;
2480;SDS011;57396;48.742;9.128;2023-10-13T13:02:23;5.40;;;2.73;;
2480;SDS011;57396;48.742;9.128;2023-10-13T13:04:55;11.27;;;3.20;;
2480;SDS011;57396;48.742;9.128;2023-10-13T13:07:40;11.33;;;3.60;;
2480;SDS011;57396;48.742;9.128;2023-10-13T13:10:12;10.03;;;3.00;;
2480;SDS011;57396;48.742;9.128;2023-10-13T13:12:39;9.30;;;3.20;;
2480;SDS011;57396;48.742;9.128;2023-10-13T13:15:05;12.07;;;3.10;;
2480;SDS011;57396;48.742;9.128;2023-10-13T13:17:34;8.13;;;2.80;;
2480;SDS011;57396;48.742;9.128;2023-10-13T13:20:00;6.37;;;2.90;;
2480;SDS011;57396;48.742;9.128;2023-10-13T13:22:35;10.60;;;3.03;;
2480;SDS011;57396;48.742;9.128;2023-10-13T13:25:01;14.33;;;2.90;;
2480;SDS011;57396;48.742;9.128;2023-10-13T13:27:26;11.07;;;3.23;;
2480;SDS011;57396;48.742;9.128;2023-10-13T13:29:52;8.20;;;3.13;;
2480;SDS011;57396;48.742;9.128;2023-10-13T13:32:17;6.90;;;2.73;;
2480;SDS011;57396;48.742;9.128;2023-10-13T13:34:49;8.50;;;2.90;;
2480;SDS011;57396;48.742;9.128;2023-10-13T13:37:33;3.47;;;3.00;;
2480;SDS011;57396;48.742;9.128;2023-10-13T13:39:59;9.27;;;3.10;;
2480;SDS011;57396;48.742;9.128;2023-10-13T13:42:39;5.43;;;3.20;;
2480;SDS011;57396;48.742;9.128;2023-10-13T13:45:17;7.70;;;2.90;;
2480;SDS011;57396;48.742;9.128;2023-10-13T13:47:53;4.37;;;3.13;;
2480;SDS011;57396;48.742;9.128;2023-10-13T13:50:24;12.70;;;2.80;;
2480;SDS011;57396;48.742;9.128;2023-10-13T13:52:53;9.10;;;2.83;;
2480;SDS011;57396;48.742;9.128;2023-10-13T13:55:22;7.03;;;3.00;;
2480;SDS011;57396;48.742;9.128;2023-10-13T13:57:49;10.63;;;2.70;;
2480;SDS011;57396;48.742;9.128;2023-10-13T14:00:18;9.47;;;2.50;;
2480;SDS011;57396;48.742;9.128;2023-10-13T14:03:05;16.20;;;2.87;;
2480;SDS011;57396;48.742;9.128;2023-10-13T14:05:40;8.83;;;2.80;;
2480;SDS011;57396;48.742;9.128;2023-10-13T14:08:06;6.07;;;2.70;;
2480;SDS011;57396;48.742;9.128;2023-10-13T14:10:37;8.30;;;3.00;;
2480;SDS011;57396;48.742;9.128;2023-10-13T14:13:23;8.87;;;3.83;;
2480;SDS011;57396;48.742;9.128;2023-10-13T14:16:08;10.80;;;3.50;;
2480;SDS011;57396;48.742;9.128;2023-10-13T14:18:42;5.60;;;3.10;;
2480;SDS011;57396;48.742;9.128;2023-10-13T14:21:10;10.03;;;3.20;;
2480;SDS011;57396;48.742;9.128;2023-10-13T14:23:35;7.20;;;2.80;;
2480;SDS011;57396;48.742;9.128;2023-10-13T14:26:01;6.37;;;3.00;;
2480;SDS011;57396;48.742;9.128;2023-10-13T14:28:26;8.40;;;2.87;;
2480;SDS011;57396;48.742;9.128;2023-10-13T14:31:03;10.80;;;3.00;;
2480;SDS011;57396;48.742;9.128;2023-10-13T14:33:35;5.30;;;2.67;;
2480;SDS011;57396;48.742;9.128;2023-10-13T14:36:02;4.70;;;2.53;;
2480;SDS011;57396;48.742;9.128;2023-10-13T14:38:30;5.57;;;2.50;;
2480;SDS011;57396;48.742;9.128;2023-10-13T14:40:58;6.27;;;2.43;;
2480;SDS011;57396;48.742;9.128;2023-10-13T14:43:24;10.33;;;2.93;;
2480;SDS011;57396;48.742;9.128;2023-10-13T14:45:55;11.47;;;2.47;;
2480;SDS011;57396;48.742;9.128;2023-10-13T14:48:21;7.90;;;2.67;;
2480;SDS011;57396;48.742;9.128;2023-10-13T14:50:49;7.13;;;2.10;;
2480;SDS011;57396;48.742;9.128;2023-10-13T14:53:14;5.80;;;2.50;;
2480;SDS011;57396;48.742;9.128;2023-10-13T14:55:44;6.37;;;2.60;;
2480;SDS011;57396;48.742;9.128;2023-10-13T14:58:10;4.27;;;2.20;;
2480;SDS011;57396;48.742;9.128;2023-10-13T15:00:41;8.50;;;2.33;;
2480;SDS011;57396;48.742;9.128;2023-10-13T15:03:10;6.73;;;2.30;;
2480;SDS011;57396;48.742;9.128;2023-10-13T15:05:39;4.43;;;2.37;;
2480;SDS011;57396;48.742;9.128;2023-10-13T15:08:08;4.70;;;2.43;;
2480;SDS011;57396;48.742;9.128;2023-10-13T15:10:34;3.73;;;2.10;;
2480;SDS011;57396;48.742;9.128;2023-10-13T15:13:01;7.53;;;2.83;;
2480;SDS011;57396;48.742;9.128;2023-10-13T15:15:27;3.77;;;2.30;;
2480;SDS011;57396;48.742;9.128;2023-10-13T15:17:55;6.40;;;2.70;;
2480;SDS011;57396;48.742;9.128;2023-10-13T15:20:21;6.77;;;2.23;;
2480;SDS011;57396;48.742;9.128;2023-10-13T15:22:46;5.73;;;2.63;;
2480;SDS011;57396;48.742;9.128;2023-10-13T15:25:14;10.33;;;2.60;;
2480;SDS011;57396;48.742;9.128;2023-10-13T15:27:53;5.33;;;2.60;;
2480;SDS011;57396;48.742;9.128;2023-10-13T15:30:24;5.33;;;2.43;;
2480;SDS011;57396;48.742;9.128;2023-10-13T15:32:55;7.13;;;2.13;;
2480;SDS011;57396;48.742;9.128;2023-10-13T15:35:22;6.87;;;2.30;;
2480;SDS011;57396;48.742;9.128;2023-10-13T15:37:53;12.60;;;2.40;;
2480;SDS011;57396;48.742;9.128;2023-10-13T15:40:20;8.07;;;2.67;;
2480;SDS011;57396;48.742;9.128;2023-10-13T15:42:46;7.70;;;2.20;;
2480;SDS011;57396;48.742;9.128;2023-10-13T15:45:12;5.53;;;2.53;;
2480;SDS011;57396;48.742;9.128;2023-10-13T15:47:44;11.80;;;2.30;;
2480;SDS011;57396;48.742;9.128;2023-10-13T15:50:14;6.93;;;2.57;;
2480;SDS011;57396;48.742;9.128;2023-10-13T15:52:43;6.40;;;2.53;;
2480;SDS011;57396;48.742;9.128;2023-10-13T15:55:15;8.23;;;2.50;;
2480;SDS011;57396;48.742;9.128;2023-10-13T15:57:42;4.63;;;2.60;;
2480;SDS011;57396;48.742;9.128;2023-10-13T16:00:09;5.63;;;2.40;;